createdAt,value
2023-02-07T00:00:17.463Z,100944.15
2023-02-07T00:02:46.434Z,100943.64
2023-02-07T00:05:13.677Z,100925.71
2023-02-07T00:07:40.554Z,100921.06
2023-02-07T00:10:08.474Z,100939.67
2023-02-07T00:12:35.684Z,100932.26
2023-02-07T00:15:02.393Z,100926.58
2023-02-07T00:17:29.568Z,100916.57
2023-02-07T00:19:57.030Z,100901.76
2023-02-07T00:22:23.889Z,100913.65
2023-02-07T00:24:50.700Z,100919.35
2023-02-07T00:27:17.875Z,100916.39
2023-02-07T00:29:45.325Z,100920.38
2023-02-07T00:32:12.977Z,100920.23
2023-02-07T00:34:40.010Z,100917.30
2023-02-07T00:37:06.928Z,100922.81
2023-02-07T00:39:33.821Z,100919.35
2023-02-07T00:42:00.598Z,100905.40
2023-02-07T00:44:27.387Z,100909.52
2023-02-07T00:46:54.318Z,100913.84
2023-02-07T00:49:22.131Z,100915.58
2023-02-07T00:51:48.858Z,100918.84
2023-02-07T00:54:15.689Z,100919.02
2023-02-07T00:56:43.776Z,100911.59
2023-02-07T00:59:10.531Z,100907.95
2023-02-07T01:01:37.489Z,100905.55
2023-02-07T01:04:04.440Z,100903.64
2023-02-07T01:06:33.910Z,100899.33
2023-02-07T01:09:02.491Z,100905.18
2023-02-07T01:11:30.383Z,100902.25
2023-02-07T01:13:59.955Z,100899.15
2023-02-07T01:16:30.809Z,100893.46
2023-02-07T01:19:02.227Z,100886.73
2023-02-07T01:21:29.280Z,100884.83
2023-02-07T01:23:56.941Z,100877.40
2023-02-07T01:26:25.568Z,100877.59
2023-02-07T01:28:55.084Z,100876.73
2023-02-07T01:31:23.209Z,100874.50
2023-02-07T01:33:55.532Z,100882.06
2023-02-07T01:36:22.603Z,100878.79
2023-02-07T01:38:52.446Z,100871.06
2023-02-07T01:41:20.602Z,100864.88
2023-02-07T01:44:03.092Z,100863.16
2023-02-07T01:46:32.211Z,100865.55
2023-02-07T01:49:04.878Z,100867.27
2023-02-07T01:51:32.848Z,100877.41
2023-02-07T01:54:03.392Z,100875.17
2023-02-07T01:56:32.416Z,100875.69
2023-02-07T01:59:04.460Z,100877.05
2023-02-07T02:01:31.681Z,100877.56
2023-02-07T02:03:58.692Z,100879.11
2023-02-07T02:06:30.419Z,100881.16
2023-02-07T02:09:01.355Z,100887.34
2023-02-07T02:11:49.471Z,100884.26
2023-02-07T02:14:26.922Z,100882.88
2023-02-07T02:17:22.283Z,100877.17
2023-02-07T02:19:50.100Z,100877.85
2023-02-07T02:22:25.464Z,100876.11
2023-02-07T02:24:59.200Z,100877.30
2023-02-07T02:27:34.407Z,100880.73
2023-02-07T02:30:29.904Z,100887.44
2023-02-07T02:33:09.212Z,100893.29
2023-02-07T02:35:42.716Z,100901.54
2023-02-07T02:38:24.005Z,100904.81
2023-02-07T02:41:02.015Z,100900.86
2023-02-07T02:43:54.037Z,100888.13
2023-02-07T02:46:25.161Z,100880.90
2023-02-07T02:48:53.878Z,100874.55
2023-02-07T02:51:21.288Z,100875.93
2023-02-07T02:53:52.867Z,100875.59
2023-02-07T02:56:39.488Z,100884.88
2023-02-07T02:59:26.489Z,100890.23
2023-02-07T03:02:02.736Z,100887.81
2023-02-07T03:05:00.484Z,100886.97
2023-02-07T03:07:46.294Z,100888.70
2023-02-07T03:10:24.271Z,100885.60
2023-02-07T03:13:01.870Z,100885.06
2023-02-07T03:15:35.025Z,100883.85
2023-02-07T03:18:14.343Z,100877.30
2023-02-07T03:20:47.012Z,100887.78
2023-02-07T03:23:16.549Z,100886.20
2023-02-07T03:25:45.756Z,100888.23
2023-02-07T03:28:16.693Z,100895.45
2023-02-07T03:30:49.064Z,100905.59
2023-02-07T03:33:17.978Z,100902.33
2023-02-07T03:36:09.772Z,100900.23
2023-02-07T03:38:37.802Z,100900.05
2023-02-07T03:41:15.688Z,100899.38
2023-02-07T03:43:44.230Z,100896.66
2023-02-07T03:46:11.738Z,100891.83
2023-02-07T03:48:38.550Z,100893.20
2023-02-07T03:51:05.478Z,100899.57
2023-02-07T03:53:32.184Z,100896.14
2023-02-07T03:55:58.966Z,100893.06
2023-02-07T03:58:25.880Z,100896.67
2023-02-07T04:00:52.736Z,100897.17
2023-02-07T04:03:19.582Z,100900.78
2023-02-07T04:05:46.569Z,100906.11
2023-02-07T04:08:13.383Z,100908.86
2023-02-07T04:10:40.195Z,100905.26
2023-02-07T04:13:06.989Z,100907.84
2023-02-07T04:15:33.833Z,100906.98
2023-02-07T04:18:00.758Z,100904.09
2023-02-07T04:20:27.637Z,100901.84
2023-02-07T04:22:54.402Z,100897.54
2023-02-07T04:25:21.359Z,100902.33
2023-02-07T04:27:51.013Z,100895.62
2023-02-07T04:30:17.888Z,100896.14
2023-02-07T04:32:44.693Z,100894.41
2023-02-07T04:35:11.440Z,100891.15
2023-02-07T04:37:38.227Z,100893.01
2023-02-07T04:40:05.324Z,100893.86
2023-02-07T04:42:32.180Z,100892.65
2023-02-07T04:44:58.919Z,100889.86
2023-02-07T04:47:25.702Z,100892.41
2023-02-07T04:49:52.503Z,100903.66
2023-02-07T04:52:19.241Z,100903.63
2023-02-07T04:54:46.260Z,100910.45
2023-02-07T04:57:12.991Z,100912.69
2023-02-07T04:59:39.723Z,100907.86
2023-02-07T05:02:06.626Z,100906.79
2023-02-07T05:04:33.444Z,100908.44
2023-02-07T05:07:00.233Z,100911.11
2023-02-07T05:09:27.231Z,100914.23
2023-02-07T05:11:54.014Z,100916.67
2023-02-07T05:14:20.778Z,100915.52
2023-02-07T05:16:47.622Z,100914.05
2023-02-07T05:19:14.420Z,100916.17
2023-02-07T05:21:41.170Z,100915.18
2023-02-07T05:24:08.277Z,100915.80
2023-02-07T05:26:35.044Z,100912.29
2023-02-07T05:29:01.807Z,100907.86
2023-02-07T05:31:44.164Z,100908.95
2023-02-07T05:34:11.089Z,100915.70
2023-02-07T05:36:37.836Z,100918.68
2023-02-07T05:39:04.722Z,100922.48
2023-02-07T05:41:31.557Z,100919.60
2023-02-07T05:43:58.268Z,100919.81
2023-02-07T05:46:25.094Z,100926.73
2023-02-07T05:48:51.917Z,100929.19
2023-02-07T05:51:19.004Z,100924.94
2023-02-07T05:53:45.815Z,100909.98
2023-02-07T05:56:12.583Z,100909.65
2023-02-07T05:58:39.327Z,100917.59
2023-02-07T06:01:06.140Z,100916.91
2023-02-07T06:03:32.939Z,100911.93
2023-02-07T06:05:59.659Z,100919.87
2023-02-07T06:08:26.444Z,100913.16
2023-02-07T06:10:53.156Z,100918.31
2023-02-07T06:13:19.964Z,100918.30
2023-02-07T06:15:47.768Z,100917.27
2023-02-07T06:18:14.836Z,100914.31
2023-02-07T06:20:41.538Z,100913.77
2023-02-07T06:23:08.332Z,100919.62
2023-02-07T06:25:35.016Z,100922.54
2023-02-07T06:28:01.809Z,100919.59
2023-02-07T06:30:28.710Z,100918.86
2023-02-07T06:32:55.423Z,100927.10
2023-02-07T06:35:22.132Z,100927.62
2023-02-07T06:37:48.946Z,100927.81
2023-02-07T06:40:16.089Z,100926.13
2023-02-07T06:42:44.467Z,100927.37
2023-02-07T06:45:11.269Z,100930.46
2023-02-07T06:47:37.978Z,100939.27
2023-02-07T06:50:05.214Z,100939.27
2023-02-07T06:52:32.047Z,100938.74
2023-02-07T06:54:58.736Z,100938.36
2023-02-07T06:57:25.489Z,100940.40
2023-02-07T06:59:52.295Z,100949.86
2023-02-07T07:02:19.184Z,100952.92
2023-02-07T07:04:46.076Z,100959.48
2023-02-07T07:07:12.949Z,100959.13
2023-02-07T07:09:39.794Z,100957.72
2023-02-07T07:12:08.806Z,100959.39
2023-02-07T07:14:36.122Z,100957.55
2023-02-07T07:17:02.998Z,100957.14
2023-02-07T07:19:29.725Z,100950.27
2023-02-07T07:21:56.593Z,100944.19
2023-02-07T07:24:25.378Z,100940.97
2023-02-07T07:26:52.197Z,100936.20
2023-02-07T07:29:19.862Z,100933.98
2023-02-07T07:31:47.332Z,100928.73
2023-02-07T07:34:14.708Z,100920.33
2023-02-07T07:36:41.832Z,100918.25
2023-02-07T07:39:09.132Z,100918.95
2023-02-07T07:41:36.342Z,100919.09
2023-02-07T07:44:03.831Z,100924.42
2023-02-07T07:46:30.544Z,100918.02
2023-02-07T07:48:57.352Z,100909.76
2023-02-07T07:51:24.269Z,100908.95
2023-02-07T07:53:51.055Z,100908.99
2023-02-07T07:56:17.780Z,100910.41
2023-02-07T07:58:44.635Z,100910.36
2023-02-07T08:01:11.393Z,100910.77
2023-02-07T08:03:38.270Z,100911.96
2023-02-07T08:06:06.116Z,100914.50
2023-02-07T08:08:33.720Z,100918.21
2023-02-07T08:11:03.661Z,100915.78
2023-02-07T08:13:32.993Z,100917.58
2023-02-07T08:16:01.360Z,100917.19
2023-02-07T08:18:29.261Z,100914.46
2023-02-07T08:20:56.405Z,100908.61
2023-02-07T08:23:23.130Z,100908.89
2023-02-07T08:25:50.254Z,100906.90
2023-02-07T08:28:18.169Z,100909.14
2023-02-07T08:30:47.676Z,100914.65
2023-02-07T08:33:15.960Z,100915.36
2023-02-07T08:35:43.111Z,100916.76
2023-02-07T08:38:09.985Z,100919.68
2023-02-07T08:40:37.601Z,100925.03
2023-02-07T08:43:07.519Z,100932.80
2023-02-07T08:45:34.386Z,100934.33
2023-02-07T08:48:01.259Z,100927.25
2023-02-07T08:50:28.086Z,100926.81
2023-02-07T08:52:55.001Z,100922.65
2023-02-07T08:55:24.133Z,100918.53
2023-02-07T08:57:50.954Z,100927.85
2023-02-07T09:00:18.126Z,100924.24
2023-02-07T09:02:45.052Z,100916.86
2023-02-07T09:05:12.135Z,100906.05
2023-02-07T09:07:39.002Z,100901.52
2023-02-07T09:10:07.774Z,100900.48
2023-02-07T09:12:35.584Z,100892.73
2023-02-07T09:15:03.946Z,100894.66
2023-02-07T09:17:30.777Z,100897.45
2023-02-07T09:19:57.660Z,100898.66
2023-02-07T09:22:24.366Z,100895.29
2023-02-07T09:24:51.114Z,100896.89
2023-02-07T09:27:17.894Z,100897.58
2023-02-07T09:29:44.852Z,100898.42
2023-02-07T09:32:11.548Z,100897.95
2023-02-07T09:34:38.357Z,100900.29
2023-02-07T09:37:05.226Z,100905.81
2023-02-07T09:39:33.127Z,100902.06
2023-02-07T09:42:21.602Z,100896.41
2023-02-07T09:44:56.942Z,100889.63
2023-02-07T09:47:26.041Z,100890.23
2023-02-07T09:50:01.723Z,100893.95
2023-02-07T09:52:35.798Z,100892.52
2023-02-07T09:55:05.608Z,100881.64
2023-02-07T09:57:44.292Z,100880.86
2023-02-07T10:00:29.108Z,100874.73
2023-02-07T10:02:58.664Z,100875.51
2023-02-07T10:05:34.796Z,100876.75
2023-02-07T10:08:02.011Z,100874.98
2023-02-07T10:10:57.066Z,100868.88
2023-02-07T10:13:40.649Z,100870.70
2023-02-07T10:16:23.715Z,100869.02
2023-02-07T10:19:24.702Z,100865.19
2023-02-07T10:21:58.899Z,100862.75
2023-02-07T10:24:25.539Z,100857.13
2023-02-07T10:26:57.892Z,100849.40
2023-02-07T10:29:28.043Z,100843.43
2023-02-07T10:31:59.816Z,100842.02
2023-02-07T10:34:37.661Z,100833.55
2023-02-07T10:37:18.462Z,100825.78
2023-02-07T10:39:52.855Z,100817.55
2023-02-07T10:42:20.585Z,100819.27
2023-02-07T10:44:47.877Z,100818.92
2023-02-07T10:47:18.559Z,100821.38
2023-02-07T10:49:48.631Z,100816.43
2023-02-07T10:52:28.755Z,100823.73
2023-02-07T10:54:58.927Z,100828.68
2023-02-07T10:57:27.915Z,100829.59
2023-02-07T11:00:01.738Z,100835.93
2023-02-07T11:02:28.618Z,100829.76
2023-02-07T11:04:57.231Z,100833.98
2023-02-07T11:07:25.082Z,100836.04
2023-02-07T11:09:52.653Z,100839.62
2023-02-07T11:12:21.563Z,100839.80
2023-02-07T11:15:05.809Z,100841.16
2023-02-07T11:17:35.086Z,100845.08
2023-02-07T11:20:05.708Z,100840.64
2023-02-07T11:22:32.964Z,100840.79
2023-02-07T11:25:05.509Z,100839.02
2023-02-07T11:27:41.892Z,100838.92
2023-02-07T11:30:16.411Z,100838.22
2023-02-07T11:32:44.551Z,100837.73
2023-02-07T11:35:20.883Z,100840.34
2023-02-07T11:37:58.845Z,100843.44
2023-02-07T11:40:36.243Z,100845.61
2023-02-07T11:43:12.298Z,100846.69
2023-02-07T11:45:42.992Z,100843.67
2023-02-07T11:48:24.882Z,100840.17
2023-02-07T11:50:55.624Z,100842.18
2023-02-07T11:53:35.156Z,100843.89
2023-02-07T11:56:02.294Z,100837.83
2023-02-07T11:58:35.390Z,100837.08
2023-02-07T12:01:05.453Z,100832.81
2023-02-07T12:03:41.918Z,100833.23
2023-02-07T12:06:15.708Z,100833.44
2023-02-07T12:08:44.325Z,100831.69
2023-02-07T12:11:17.568Z,100829.73
2023-02-07T12:13:44.421Z,100826.02
2023-02-07T12:16:14.721Z,100825.61
2023-02-07T12:18:48.669Z,100822.06
2023-02-07T12:21:30.876Z,100813.95
2023-02-07T12:24:03.171Z,100819.18
2023-02-07T12:26:37.655Z,100812.58
2023-02-07T12:29:22.022Z,100810.88
2023-02-07T12:32:12.485Z,100807.35
2023-02-07T12:34:59.824Z,100806.66
2023-02-07T12:37:37.648Z,100803.56
2023-02-07T12:40:09.861Z,100802.77
2023-02-07T12:42:49.749Z,100805.73
2023-02-07T12:45:23.276Z,100808.36
2023-02-07T12:47:50.105Z,100801.21
2023-02-07T12:50:35.873Z,100801.59
2023-02-07T12:53:21.786Z,100799.29
2023-02-07T12:56:19.980Z,100795.78
2023-02-07T12:59:09.675Z,100793.43
2023-02-07T13:01:45.580Z,100791.09
2023-02-07T13:04:25.188Z,100795.15
2023-02-07T13:07:16.232Z,100795.70
2023-02-07T13:10:07.287Z,100796.88
2023-02-07T13:12:49.316Z,100791.21
2023-02-07T13:15:21.539Z,100788.85
2023-02-07T13:17:55.708Z,100792.11
2023-02-07T13:20:22.376Z,100790.66
2023-02-07T13:22:56.971Z,100789.06
2023-02-07T13:25:29.511Z,100788.73
2023-02-07T13:27:59.334Z,100784.33
2023-02-07T13:30:29.775Z,100784.29
2023-02-07T13:33:00.929Z,100776.06
2023-02-07T13:35:33.104Z,100777.66
2023-02-07T13:38:31.323Z,100774.77
2023-02-07T13:41:04.854Z,100773.29
2023-02-07T13:44:01.638Z,100773.13
2023-02-07T13:46:43.507Z,100774.19
2023-02-07T13:49:23.418Z,100775.98
2023-02-07T13:52:02.077Z,100775.02
2023-02-07T13:54:46.658Z,100774.18
2023-02-07T13:57:36.806Z,100773.43
2023-02-07T14:00:07.611Z,100774.50
2023-02-07T14:02:45.100Z,100776.50
2023-02-07T14:05:21.286Z,100775.52
2023-02-07T14:07:57.935Z,100772.08
2023-02-07T14:10:34.591Z,100770.66
2023-02-07T14:13:02.622Z,100767.81
2023-02-07T14:15:30.745Z,100770.38
2023-02-07T14:18:04.121Z,100764.81
2023-02-07T14:20:47.855Z,100761.88
2023-02-07T14:23:17.030Z,100759.91
2023-02-07T14:25:45.758Z,100757.55
2023-02-07T14:28:30.502Z,100749.39
2023-02-07T14:31:01.517Z,100745.69
2023-02-07T14:33:34.021Z,100743.87
2023-02-07T14:36:16.935Z,100748.67
2023-02-07T14:38:59.974Z,100755.57
2023-02-07T14:41:30.557Z,100756.13
2023-02-07T14:44:09.172Z,100754.83
2023-02-07T14:46:40.904Z,100759.06
2023-02-07T14:49:13.861Z,100761.52
2023-02-07T14:51:47.278Z,100764.13
2023-02-07T14:54:22.168Z,100768.48
2023-02-07T14:57:15.574Z,100766.90
2023-02-07T14:59:47.263Z,100766.27
2023-02-07T15:02:31.106Z,100773.30
2023-02-07T15:04:58.783Z,100776.29
2023-02-07T15:07:25.555Z,100774.55
2023-02-07T15:09:52.451Z,100779.36
2023-02-07T15:12:27.366Z,100781.58
2023-02-07T15:14:57.245Z,100784.88
2023-02-07T15:17:33.472Z,100786.53
2023-02-07T15:20:06.819Z,100792.21
2023-02-07T15:22:33.560Z,100794.95
2023-02-07T15:25:01.181Z,100798.06
2023-02-07T15:27:30.061Z,100801.11
2023-02-07T15:30:01.187Z,100799.29
2023-02-07T15:32:31.604Z,100800.91
2023-02-07T15:35:07.306Z,100803.05
2023-02-07T15:37:34.136Z,100799.39
2023-02-07T15:40:01.078Z,100802.42
2023-02-07T15:42:28.723Z,100804.02
2023-02-07T15:44:58.445Z,100806.86
2023-02-07T15:47:28.539Z,100806.48
2023-02-07T15:50:00.836Z,100809.54
2023-02-07T15:52:27.574Z,100811.16
2023-02-07T15:54:55.782Z,100812.80
2023-02-07T15:57:28.495Z,100813.25
2023-02-07T15:59:56.599Z,100817.83
2023-02-07T16:02:29.917Z,100818.80
2023-02-07T16:04:57.750Z,100820.78
2023-02-07T16:07:25.139Z,100823.58
2023-02-07T16:09:54.070Z,100825.30
2023-02-07T16:12:32.092Z,100835.77
2023-02-07T16:15:00.794Z,100835.52
2023-02-07T16:17:44.544Z,100838.02
2023-02-07T16:20:14.803Z,100840.85
2023-02-07T16:22:43.781Z,100849.52
2023-02-07T16:25:21.729Z,100847.77
2023-02-07T16:27:51.386Z,100848.59
2023-02-07T16:30:23.728Z,100852.45
2023-02-07T16:32:50.519Z,100848.48
2023-02-07T16:35:24.132Z,100850.11
2023-02-07T16:37:51.513Z,100853.39
2023-02-07T16:40:22.398Z,100856.62
2023-02-07T16:42:50.140Z,100857.23
2023-02-07T16:45:27.154Z,100862.11
2023-02-07T16:47:55.386Z,100859.02
2023-02-07T16:50:25.386Z,100864.23
2023-02-07T16:52:54.751Z,100861.32
2023-02-07T16:55:21.585Z,100862.70
2023-02-07T16:57:50.318Z,100860.18
2023-02-07T17:00:21.275Z,100859.53
2023-02-07T17:02:50.664Z,100861.10
2023-02-07T17:05:19.035Z,100865.00
2023-02-07T17:07:47.459Z,100867.47
2023-02-07T17:10:18.435Z,100867.48
2023-02-07T17:12:45.601Z,100872.27
2023-02-07T17:15:12.608Z,100875.75
2023-02-07T17:17:39.708Z,100876.62
2023-02-07T17:20:23.072Z,100877.68
2023-02-07T17:22:51.743Z,100877.95
2023-02-07T17:25:20.152Z,100878.02
2023-02-07T17:27:47.393Z,100879.33
2023-02-07T17:30:19.763Z,100884.97
2023-02-07T17:32:47.018Z,100883.31
2023-02-07T17:35:14.406Z,100891.62
2023-02-07T17:37:41.601Z,100890.19
2023-02-07T17:40:20.520Z,100885.21
2023-02-07T17:42:47.407Z,100888.41
2023-02-07T17:45:14.967Z,100888.16
2023-02-07T17:47:42.164Z,100879.33
2023-02-07T17:50:16.982Z,100880.74
2023-02-07T17:52:44.004Z,100887.93
2023-02-07T17:55:10.992Z,100894.48
2023-02-07T17:57:38.222Z,100896.66
2023-02-07T18:00:06.039Z,100898.41
2023-02-07T18:02:39.672Z,100900.46
2023-02-07T18:05:07.039Z,100903.33
2023-02-07T18:07:33.982Z,100905.21
2023-02-07T18:10:00.769Z,100907.38
2023-02-07T18:12:27.675Z,100911.47
2023-02-07T18:14:56.556Z,100911.15
2023-02-07T18:17:25.566Z,100914.34
2023-02-07T18:19:52.404Z,100915.69
2023-02-07T18:22:19.243Z,100921.23
2023-02-07T18:24:46.358Z,100925.34
2023-02-07T18:27:17.463Z,100925.02
2023-02-07T18:29:46.115Z,100927.19
2023-02-07T18:32:13.376Z,100932.86
2023-02-07T18:34:41.097Z,100938.72
2023-02-07T18:37:08.114Z,100943.55
2023-02-07T18:39:34.961Z,100943.00
2023-02-07T18:42:02.138Z,100942.67
2023-02-07T18:44:28.949Z,100943.02
2023-02-07T18:46:55.942Z,100945.86
2023-02-07T18:49:23.575Z,100944.54
2023-02-07T18:51:50.398Z,100944.13
2023-02-07T18:54:17.445Z,100941.58
2023-02-07T18:56:51.868Z,100942.14
2023-02-07T18:59:20.387Z,100939.30
2023-02-07T19:01:48.575Z,100940.94
2023-02-07T19:04:16.238Z,100938.52
2023-02-07T19:06:44.854Z,100937.43
2023-02-07T19:09:12.546Z,100934.55
2023-02-07T19:11:40.873Z,100931.05
2023-02-07T19:14:18.420Z,100931.11
2023-02-07T19:16:46.374Z,100935.38
2023-02-07T19:19:14.403Z,100941.27
2023-02-07T19:21:41.359Z,100936.13
2023-02-07T19:24:11.400Z,100946.04
2023-02-07T19:26:39.618Z,100941.26
2023-02-07T19:29:06.422Z,100935.77
2023-02-07T19:31:33.623Z,100940.27
2023-02-07T19:34:00.432Z,100940.93
2023-02-07T19:36:28.985Z,100947.25
2023-02-07T19:38:56.081Z,100949.92
2023-02-07T19:41:24.820Z,100946.77
2023-02-07T19:43:51.950Z,100953.17
2023-02-07T19:46:19.089Z,100951.34
2023-02-07T19:48:47.332Z,100954.17
2023-02-07T19:51:18.015Z,100954.74
2023-02-07T19:53:46.652Z,100956.77
2023-02-07T19:56:14.242Z,100957.90
2023-02-07T19:58:44.255Z,100964.00
2023-02-07T20:01:26.879Z,100965.11
2023-02-07T20:03:55.555Z,100971.08
2023-02-07T20:06:28.768Z,100970.67
2023-02-07T20:08:57.364Z,100972.64
2023-02-07T20:11:24.478Z,100974.77
2023-02-07T20:13:54.498Z,100974.61
2023-02-07T20:16:24.471Z,100971.91
2023-02-07T20:18:52.788Z,100973.14
2023-02-07T20:21:24.641Z,100975.41
2023-02-07T20:23:54.275Z,100976.45
2023-02-07T20:26:25.042Z,100978.25
2023-02-07T20:28:52.260Z,100977.84
2023-02-07T20:31:22.693Z,100977.30
2023-02-07T20:33:50.399Z,100976.78
2023-02-07T20:36:18.773Z,100984.77
2023-02-07T20:38:46.626Z,100983.09
2023-02-07T20:41:29.294Z,100979.48
2023-02-07T20:43:59.287Z,100974.94
2023-02-07T20:46:28.163Z,100974.80
2023-02-07T20:48:58.346Z,100976.21
2023-02-07T20:51:26.457Z,100977.95
2023-02-07T20:53:56.847Z,100976.60
2023-02-07T20:56:24.306Z,100976.54
2023-02-07T20:58:51.571Z,100975.88
2023-02-07T21:01:21.221Z,100982.11
2023-02-07T21:03:50.701Z,100982.84
2023-02-07T21:06:17.989Z,100981.69
2023-02-07T21:08:45.423Z,100983.02
2023-02-07T21:11:12.298Z,100980.65
2023-02-07T21:13:39.832Z,100982.52
2023-02-07T21:16:07.819Z,100984.88
2023-02-07T21:18:35.443Z,100984.04
2023-02-07T21:21:07.516Z,100985.23
2023-02-07T21:23:35.609Z,100988.30
2023-02-07T21:26:06.436Z,100992.67
2023-02-07T21:28:33.822Z,100994.48
2023-02-07T21:31:05.569Z,100994.95
2023-02-07T21:33:32.414Z,100994.10
2023-02-07T21:36:08.582Z,100997.12
2023-02-07T21:38:36.570Z,101004.34
2023-02-07T21:41:05.722Z,101006.97
2023-02-07T21:43:32.647Z,101006.46
2023-02-07T21:46:05.659Z,101004.48
2023-02-07T21:48:35.756Z,101002.32
2023-02-07T21:51:07.544Z,101005.95
2023-02-07T21:53:34.681Z,101012.14
2023-02-07T21:56:04.948Z,101012.81
2023-02-07T21:58:32.139Z,101005.77
2023-02-07T22:01:08.961Z,101007.40
2023-02-07T22:03:37.435Z,101006.98
2023-02-07T22:06:05.993Z,101006.55
2023-02-07T22:08:34.012Z,101009.26
2023-02-07T22:11:11.118Z,101015.69
2023-02-07T22:13:40.910Z,101014.06
2023-02-07T22:16:10.726Z,101009.52
2023-02-07T22:18:38.194Z,101012.21
2023-02-07T22:21:07.794Z,101016.95
2023-02-07T22:23:34.612Z,101017.38
2023-02-07T22:26:01.360Z,101017.24
2023-02-07T22:28:28.670Z,101015.69
2023-02-07T22:30:55.688Z,101010.74
2023-02-07T22:33:22.472Z,101010.46
2023-02-07T22:35:49.330Z,101010.33
2023-02-07T22:38:16.343Z,101011.59
2023-02-07T22:40:43.983Z,101012.00
2023-02-07T22:43:14.798Z,101017.01
2023-02-07T22:45:46.217Z,101020.87
2023-02-07T22:48:15.441Z,101015.48
2023-02-07T22:50:43.444Z,101011.61
2023-02-07T22:53:12.163Z,101013.07
2023-02-07T22:55:41.041Z,101011.61
2023-02-07T22:58:08.593Z,101005.42
2023-02-07T23:00:35.720Z,101002.20
2023-02-07T23:03:02.511Z,101003.97
2023-02-07T23:05:29.276Z,100999.53
2023-02-07T23:07:56.223Z,100996.45
2023-02-07T23:10:24.543Z,100995.59
2023-02-07T23:12:51.434Z,100995.48
2023-02-07T23:15:18.577Z,100997.60
2023-02-07T23:17:45.365Z,100995.90
2023-02-07T23:20:12.124Z,100993.66
2023-02-07T23:22:39.107Z,100987.80
2023-02-07T23:25:07.009Z,100981.00
2023-02-07T23:27:33.919Z,100993.20
2023-02-07T23:30:00.859Z,100990.48
2023-02-07T23:32:27.772Z,100992.02
2023-02-07T23:34:54.495Z,100994.70
2023-02-07T23:37:22.504Z,100990.98
2023-02-07T23:39:49.433Z,100987.98
2023-02-07T23:42:16.249Z,100987.23
2023-02-07T23:44:43.119Z,100990.27
2023-02-07T23:47:09.966Z,100996.16
2023-02-07T23:49:36.746Z,100996.70
2023-02-07T23:52:03.588Z,100996.53
2023-02-07T23:54:30.400Z,100994.13
2023-02-07T23:56:57.120Z,100994.89
2023-02-07T23:59:23.803Z,100996.13
